<?xml version="1.0" encoding="UTF-8" standalone="no" ?>
<gpx xmlns="http://www.topografix.com/GPX/1/1" xmlns:xsi="http://www.w3.org/2001/XMLSchema-instance" xsi:schemaLocation="http://www.topografix.com/GPX/1/1 http://www.topografix.com/GPX/1/1/gpx.xsd" version="1.1" creator="VisuGPX - https://www.visugpx.com">
  <metadata>
    <name>Tour de France 2019</name>
    <desc><![CDATA[4272km en 2 mois en tandem avec notre petit chien dans le panier avant]]></desc>
  </metadata>
  <trk>
    <name><![CDATA[Tracé 20191004-113502]]></name>
    <trkseg>
      <trkpt lat="46.32954" lon="4.8464">
        <ele>158.719</ele>
        <time>2019-10-04T09:35:14Z</time>
      </trkpt>
      <trkpt lat="46.32952" lon="4.84629">
        <ele>165.219</ele>
        <time>2019-10-04T09:56:02Z</time>
      </trkpt>
      <trkpt lat="46.33017" lon="4.84632">
        <ele>170.836</ele>
        <time>2019-10-04T10:03:27Z</time>
      </trkpt>
      <trkpt lat="46.33048" lon="4.84524">
        <ele>178.251</ele>
        <time>2019-10-04T10:03:57Z</time>
      </trkpt>
      <trkpt lat="46.33057" lon="4.84384">
        <ele>177.298</ele>
        <time>2019-10-04T10:04:27Z</time>
      </trkpt>
      <trkpt lat="46.33119" lon="4.84319">
        <ele>179.863</ele>
        <time>2019-10-04T10:04:57Z</time>
      </trkpt>
      <trkpt lat="46.33194" lon="4.84335">
        <ele>178.317</ele>
        <time>2019-10-04T10:05:45Z</time>
      </trkpt>
      <trkpt lat="46.33338" lon="4.84394">
        <ele>176.867</ele>
        <time>2019-10-04T10:06:15.001Z</time>
      </trkpt>
      <trkpt lat="46.33494" lon="4.84458">
        <ele>179.331</ele>
        <time>2019-10-04T10:06:45.001Z</time>
      </trkpt>
      <trkpt lat="46.33626" lon="4.84545">
        <ele>178.748</ele>
        <time>2019-10-04T10:07:15.001Z</time>
      </trkpt>
      <trkpt lat="46.33585" lon="4.84442">
        <ele>173.772</ele>
        <time>2019-10-04T10:07:45.001Z</time>
      </trkpt>
      <trkpt lat="46.33576" lon="4.84441">
        <ele>175.706</ele>
        <time>2019-10-04T10:15:09.001Z</time>
      </trkpt>
      <trkpt lat="46.33571" lon="4.84434">
        <ele>175.387</ele>
        <time>2019-10-04T10:16:39.001Z</time>
      </trkpt>
      <trkpt lat="46.33576" lon="4.84413">
        <ele>180.29</ele>
        <time>2019-10-04T10:17:24.001Z</time>
      </trkpt>
      <trkpt lat="46.33571" lon="4.84423">
        <ele>179.578</ele>
        <time>2019-10-04T10:21:03.001Z</time>
      </trkpt>
      <trkpt lat="46.33587" lon="4.84391">
        <ele>173.279</ele>
        <time>2019-10-04T10:21:45.001Z</time>
      </trkpt>
      <trkpt lat="46.33578" lon="4.84428">
        <ele>170.922</ele>
        <time>2019-10-04T10:26:54.001Z</time>
      </trkpt>
      <trkpt lat="46.33579" lon="4.84436">
        <ele>173.417</ele>
        <time>2019-10-04T10:29:27.001Z</time>
      </trkpt>
      <trkpt lat="46.33578" lon="4.84424">
        <ele>176.246</ele>
        <time>2019-10-04T10:30:54.001Z</time>
      </trkpt>
      <trkpt lat="46.33578" lon="4.84426">
        <ele>175.347</ele>
        <time>2019-10-04T10:32:27.001Z</time>
      </trkpt>
      <trkpt lat="46.33578" lon="4.84432">
        <ele>178.732</ele>
        <time>2019-10-04T10:37:15.001Z</time>
      </trkpt>
      <trkpt lat="46.33518" lon="4.84422">
        <ele>186.593</ele>
        <time>2019-10-04T10:37:45.001Z</time>
      </trkpt>
      <trkpt lat="46.33397" lon="4.84337">
        <ele>189.225</ele>
        <time>2019-10-04T10:38:15.001Z</time>
      </trkpt>
      <trkpt lat="46.33366" lon="4.8419">
        <ele>184.192</ele>
        <time>2019-10-04T10:38:45.001Z</time>
      </trkpt>
      <trkpt lat="46.33222" lon="4.8412">
        <ele>179.428</ele>
        <time>2019-10-04T10:39:15.001Z</time>
      </trkpt>
      <trkpt lat="46.33149" lon="4.84228">
        <ele>176.566</ele>
        <time>2019-10-04T10:39:45.001Z</time>
      </trkpt>
      <trkpt lat="46.33103" lon="4.84317">
        <ele>174.062</ele>
        <time>2019-10-04T10:40:21.001Z</time>
      </trkpt>
      <trkpt lat="46.32952" lon="4.84334">
        <ele>173.147</ele>
        <time>2019-10-04T10:40:51.001Z</time>
      </trkpt>
      <trkpt lat="46.32808" lon="4.84296">
        <ele>174.143</ele>
        <time>2019-10-04T10:41:21.001Z</time>
      </trkpt>
      <trkpt lat="46.32661" lon="4.84235">
        <ele>176.88</ele>
        <time>2019-10-04T10:41:51.001Z</time>
      </trkpt>
      <trkpt lat="46.32514" lon="4.84183">
        <ele>181.959</ele>
        <time>2019-10-04T10:42:21.001Z</time>
      </trkpt>
      <trkpt lat="46.32407" lon="4.84093">
        <ele>174.261</ele>
        <time>2019-10-04T10:42:51.001Z</time>
      </trkpt>
      <trkpt lat="46.32261" lon="4.84033">
        <ele>170.149</ele>
        <time>2019-10-04T10:43:21.001Z</time>
      </trkpt>
      <trkpt lat="46.32119" lon="4.83974">
        <ele>173.247</ele>
        <time>2019-10-04T10:43:51.001Z</time>
      </trkpt>
      <trkpt lat="46.32001" lon="4.83927">
        <ele>174.145</ele>
        <time>2019-10-04T10:44:21.001Z</time>
      </trkpt>
      <trkpt lat="46.31882" lon="4.83955">
        <ele>172.355</ele>
        <time>2019-10-04T10:44:51.001Z</time>
      </trkpt>
      <trkpt lat="46.3183" lon="4.8415">
        <ele>180.824</ele>
        <time>2019-10-04T10:45:21.001Z</time>
      </trkpt>
      <trkpt lat="46.31724" lon="4.84226">
        <ele>179.796</ele>
        <time>2019-10-04T10:45:51.001Z</time>
      </trkpt>
      <trkpt lat="46.31599" lon="4.84146">
        <ele>171.077</ele>
        <time>2019-10-04T10:46:21.001Z</time>
      </trkpt>
      <trkpt lat="46.31481" lon="4.84076">
        <ele>166.378</ele>
        <time>2019-10-04T10:46:51.001Z</time>
      </trkpt>
      <trkpt lat="46.31373" lon="4.84003">
        <ele>172.534</ele>
        <time>2019-10-04T10:47:21.001Z</time>
      </trkpt>
      <trkpt lat="46.31254" lon="4.83951">
        <ele>173.645</ele>
        <time>2019-10-04T10:47:51.001Z</time>
      </trkpt>
      <trkpt lat="46.31136" lon="4.83861">
        <ele>173.762</ele>
        <time>2019-10-04T10:48:21.001Z</time>
      </trkpt>
      <trkpt lat="46.31003" lon="4.83811">
        <ele>172.529</ele>
        <time>2019-10-04T10:48:51.001Z</time>
      </trkpt>
      <trkpt lat="46.30876" lon="4.83764">
        <ele>172.989</ele>
        <time>2019-10-04T10:49:21.001Z</time>
      </trkpt>
      <trkpt lat="46.30748" lon="4.83708">
        <ele>175.804</ele>
        <time>2019-10-04T10:49:51.001Z</time>
      </trkpt>
      <trkpt lat="46.30611" lon="4.83655">
        <ele>175.425</ele>
        <time>2019-10-04T10:50:24.001Z</time>
      </trkpt>
      <trkpt lat="46.30531" lon="4.83605">
        <ele>180.195</ele>
        <time>2019-10-04T10:50:54.001Z</time>
      </trkpt>
      <trkpt lat="46.30465" lon="4.83525">
        <ele>176.979</ele>
        <time>2019-10-04T10:51:30.001Z</time>
      </trkpt>
      <trkpt lat="46.30339" lon="4.83422">
        <ele>173.188</ele>
        <time>2019-10-04T10:52:00Z</time>
      </trkpt>
      <trkpt lat="46.30227" lon="4.83323">
        <ele>171.123</ele>
        <time>2019-10-04T10:52:30.001Z</time>
      </trkpt>
      <trkpt lat="46.30106" lon="4.83251">
        <ele>171.353</ele>
        <time>2019-10-04T10:53:00Z</time>
      </trkpt>
      <trkpt lat="46.29995" lon="4.83174">
        <ele>176.066</ele>
        <time>2019-10-04T10:53:30.001Z</time>
      </trkpt>
      <trkpt lat="46.29886" lon="4.83108">
        <ele>176.531</ele>
        <time>2019-10-04T10:54:00Z</time>
      </trkpt>
      <trkpt lat="46.29777" lon="4.83045">
        <ele>180.931</ele>
        <time>2019-10-04T10:54:30.001Z</time>
      </trkpt>
      <trkpt lat="46.29746" lon="4.83066">
        <ele>177.812</ele>
        <time>2019-10-04T10:55:42.001Z</time>
      </trkpt>
      <trkpt lat="46.29738" lon="4.83154">
        <ele>179.565</ele>
        <time>2019-10-04T10:56:12.001Z</time>
      </trkpt>
      <trkpt lat="46.29728" lon="4.83291">
        <ele>181.561</ele>
        <time>2019-10-04T10:56:42.001Z</time>
      </trkpt>
      <trkpt lat="46.29665" lon="4.83368">
        <ele>175.252</ele>
        <time>2019-10-04T10:57:12.001Z</time>
      </trkpt>
      <trkpt lat="46.29676" lon="4.83376">
        <ele>174.858</ele>
        <time>2019-10-04T10:58:54.001Z</time>
      </trkpt>
      <trkpt lat="46.29628" lon="4.83454">
        <ele>176.537</ele>
        <time>2019-10-04T10:59:24.001Z</time>
      </trkpt>
      <trkpt lat="46.29516" lon="4.835">
        <ele>178.639</ele>
        <time>2019-10-04T10:59:54.001Z</time>
      </trkpt>
      <trkpt lat="46.2943" lon="4.83564">
        <ele>181.966</ele>
        <time>2019-10-04T11:00:24.001Z</time>
      </trkpt>
      <trkpt lat="46.29333" lon="4.83642">
        <ele>182.958</ele>
        <time>2019-10-04T11:00:54.001Z</time>
      </trkpt>
      <trkpt lat="46.29162" lon="4.83728">
        <ele>178.099</ele>
        <time>2019-10-04T11:01:24.001Z</time>
      </trkpt>
      <trkpt lat="46.29006" lon="4.83539">
        <ele>167.269</ele>
        <time>2019-10-04T11:01:54.001Z</time>
      </trkpt>
      <trkpt lat="46.28946" lon="4.83343">
        <ele>169.222</ele>
        <time>2019-10-04T11:02:24.001Z</time>
      </trkpt>
      <trkpt lat="46.28844" lon="4.83206">
        <ele>168.439</ele>
        <time>2019-10-04T11:02:54.001Z</time>
      </trkpt>
      <trkpt lat="46.28706" lon="4.8315">
        <ele>167.812</ele>
        <time>2019-10-04T11:03:24.001Z</time>
      </trkpt>
      <trkpt lat="46.28576" lon="4.8306">
        <ele>168.36</ele>
        <time>2019-10-04T11:03:54.001Z</time>
      </trkpt>
      <trkpt lat="46.28437" lon="4.83052">
        <ele>171.263</ele>
        <time>2019-10-04T11:04:24.001Z</time>
      </trkpt>
      <trkpt lat="46.28302" lon="4.83007">
        <ele>171.098</ele>
        <time>2019-10-04T11:04:54.001Z</time>
      </trkpt>
      <trkpt lat="46.28166" lon="4.82969">
        <ele>173.36</ele>
        <time>2019-10-04T11:05:24.001Z</time>
      </trkpt>
      <trkpt lat="46.28026" lon="4.82942">
        <ele>172.174</ele>
        <time>2019-10-04T11:05:54.001Z</time>
      </trkpt>
      <trkpt lat="46.27884" lon="4.82912">
        <ele>172.94</ele>
        <time>2019-10-04T11:06:24.001Z</time>
      </trkpt>
      <trkpt lat="46.27752" lon="4.82894">
        <ele>174.591</ele>
        <time>2019-10-04T11:06:54.001Z</time>
      </trkpt>
      <trkpt lat="46.27637" lon="4.82861">
        <ele>172.563</ele>
        <time>2019-10-04T11:07:27.001Z</time>
      </trkpt>
      <trkpt lat="46.27524" lon="4.82796">
        <ele>171.446</ele>
        <time>2019-10-04T11:07:57.001Z</time>
      </trkpt>
      <trkpt lat="46.27412" lon="4.82707">
        <ele>170.083</ele>
        <time>2019-10-04T11:08:27.001Z</time>
      </trkpt>
      <trkpt lat="46.27294" lon="4.8265">
        <ele>169.283</ele>
        <time>2019-10-04T11:08:57.001Z</time>
      </trkpt>
      <trkpt lat="46.27183" lon="4.82561">
        <ele>169.93</ele>
        <time>2019-10-04T11:09:27.001Z</time>
      </trkpt>
      <trkpt lat="46.27075" lon="4.82461">
        <ele>170.577</ele>
        <time>2019-10-04T11:09:57.001Z</time>
      </trkpt>
      <trkpt lat="46.26962" lon="4.82378">
        <ele>169.733</ele>
        <time>2019-10-04T11:10:27.001Z</time>
      </trkpt>
      <trkpt lat="46.2686" lon="4.82283">
        <ele>168.118</ele>
        <time>2019-10-04T11:10:57.001Z</time>
      </trkpt>
      <trkpt lat="46.26825" lon="4.82243">
        <ele>168.932</ele>
        <time>2019-10-04T11:12:27.001Z</time>
      </trkpt>
      <trkpt lat="46.26794" lon="4.82214">
        <ele>169.352</ele>
        <time>2019-10-04T11:13:54.001Z</time>
      </trkpt>
      <trkpt lat="46.26715" lon="4.8212">
        <ele>170.084</ele>
        <time>2019-10-04T11:14:24.001Z</time>
      </trkpt>
      <trkpt lat="46.26658" lon="4.82054">
        <ele>169.444</ele>
        <time>2019-10-04T11:15:51.001Z</time>
      </trkpt>
      <trkpt lat="46.26608" lon="4.81997">
        <ele>168.679</ele>
        <time>2019-10-04T11:16:51.001Z</time>
      </trkpt>
      <trkpt lat="46.26523" lon="4.81884">
        <ele>169.255</ele>
        <time>2019-10-04T11:17:21.001Z</time>
      </trkpt>
      <trkpt lat="46.26443" lon="4.81858">
        <ele>167.569</ele>
        <time>2019-10-04T11:17:51.001Z</time>
      </trkpt>
      <trkpt lat="46.2635" lon="4.81928">
        <ele>170.907</ele>
        <time>2019-10-04T11:18:21.001Z</time>
      </trkpt>
      <trkpt lat="46.26253" lon="4.81861">
        <ele>171.18</ele>
        <time>2019-10-04T11:18:51.001Z</time>
      </trkpt>
      <trkpt lat="46.26205" lon="4.81712">
        <ele>173.592</ele>
        <time>2019-10-04T11:19:21.001Z</time>
      </trkpt>
      <trkpt lat="46.26117" lon="4.8181">
        <ele>179.278</ele>
        <time>2019-10-04T11:19:51.001Z</time>
      </trkpt>
      <trkpt lat="46.26018" lon="4.81913">
        <ele>167.97</ele>
        <time>2019-10-04T11:20:21.001Z</time>
      </trkpt>
      <trkpt lat="46.25972" lon="4.82056">
        <ele>168.839</ele>
        <time>2019-10-04T11:20:51.001Z</time>
      </trkpt>
      <trkpt lat="46.25934" lon="4.82178">
        <ele>172.513</ele>
        <time>2019-10-04T11:21:21.001Z</time>
      </trkpt>
      <trkpt lat="46.25846" lon="4.82217">
        <ele>177.125</ele>
        <time>2019-10-04T11:21:51.001Z</time>
      </trkpt>
      <trkpt lat="46.25728" lon="4.82189">
        <ele>173.683</ele>
        <time>2019-10-04T11:22:21.001Z</time>
      </trkpt>
      <trkpt lat="46.25623" lon="4.82145">
        <ele>173.796</ele>
        <time>2019-10-04T11:22:51.001Z</time>
      </trkpt>
      <trkpt lat="46.2553" lon="4.82114">
        <ele>174.556</ele>
        <time>2019-10-04T11:23:21.001Z</time>
      </trkpt>
      <trkpt lat="46.25476" lon="4.82224">
        <ele>175.479</ele>
        <time>2019-10-04T11:23:51.001Z</time>
      </trkpt>
      <trkpt lat="46.25367" lon="4.82264">
        <ele>175.181</ele>
        <time>2019-10-04T11:24:21.001Z</time>
      </trkpt>
      <trkpt lat="46.25272" lon="4.8225">
        <ele>175.067</ele>
        <time>2019-10-04T11:24:51.001Z</time>
      </trkpt>
      <trkpt lat="46.25164" lon="4.82207">
        <ele>172.62</ele>
        <time>2019-10-04T11:25:21.001Z</time>
      </trkpt>
      <trkpt lat="46.25064" lon="4.82162">
        <ele>171.163</ele>
        <time>2019-10-04T11:25:51.001Z</time>
      </trkpt>
      <trkpt lat="46.24956" lon="4.82118">
        <ele>175.997</ele>
        <time>2019-10-04T11:26:24.001Z</time>
      </trkpt>
      <trkpt lat="46.24889" lon="4.82076">
        <ele>177.605</ele>
        <time>2019-10-04T11:26:54.001Z</time>
      </trkpt>
      <trkpt lat="46.2495" lon="4.81889">
        <ele>170.498</ele>
        <time>2019-10-04T11:27:24.001Z</time>
      </trkpt>
      <trkpt lat="46.25009" lon="4.81719">
        <ele>168.824</ele>
        <time>2019-10-04T11:27:54.001Z</time>
      </trkpt>
      <trkpt lat="46.25052" lon="4.81561">
        <ele>172.302</ele>
        <time>2019-10-04T11:28:24.001Z</time>
      </trkpt>
      <trkpt lat="46.25015" lon="4.81407">
        <ele>174.416</ele>
        <time>2019-10-04T11:28:54.001Z</time>
      </trkpt>
      <trkpt lat="46.24934" lon="4.81378">
        <ele>176.041</ele>
        <time>2019-10-04T11:29:24.001Z</time>
      </trkpt>
      <trkpt lat="46.24812" lon="4.81358">
        <ele>174.045</ele>
        <time>2019-10-04T11:29:54.001Z</time>
      </trkpt>
      <trkpt lat="46.24715" lon="4.81338">
        <ele>174.735</ele>
        <time>2019-10-04T11:30:24.001Z</time>
      </trkpt>
      <trkpt lat="46.24682" lon="4.81332">
        <ele>174.605</ele>
        <time>2019-10-04T11:31:27.001Z</time>
      </trkpt>
      <trkpt lat="46.24583" lon="4.81305">
        <ele>175.434</ele>
        <time>2019-10-04T11:31:57.001Z</time>
      </trkpt>
      <trkpt lat="46.24485" lon="4.81266">
        <ele>172.853</ele>
        <time>2019-10-04T11:32:27.001Z</time>
      </trkpt>
      <trkpt lat="46.24379" lon="4.8123">
        <ele>171.665</ele>
        <time>2019-10-04T11:32:57.001Z</time>
      </trkpt>
      <trkpt lat="46.24271" lon="4.81193">
        <ele>173.948</ele>
        <time>2019-10-04T11:33:27.001Z</time>
      </trkpt>
      <trkpt lat="46.24199" lon="4.81167">
        <ele>174.847</ele>
        <time>2019-10-04T11:34:27.001Z</time>
      </trkpt>
      <trkpt lat="46.24102" lon="4.81116">
        <ele>176.294</ele>
        <time>2019-10-04T11:34:57.001Z</time>
      </trkpt>
      <trkpt lat="46.24007" lon="4.81104">
        <ele>171.14</ele>
        <time>2019-10-04T11:35:27.001Z</time>
      </trkpt>
      <trkpt lat="46.2398" lon="4.81106">
        <ele>172.907</ele>
        <time>2019-10-04T11:45:21.001Z</time>
      </trkpt>
      <trkpt lat="46.23897" lon="4.81087">
        <ele>172.782</ele>
        <time>2019-10-04T11:45:51.001Z</time>
      </trkpt>
      <trkpt lat="46.23785" lon="4.81049">
        <ele>169.597</ele>
        <time>2019-10-04T11:46:21.001Z</time>
      </trkpt>
      <trkpt lat="46.23677" lon="4.80987">
        <ele>171.56</ele>
        <time>2019-10-04T11:46:51.001Z</time>
      </trkpt>
      <trkpt lat="46.2357" lon="4.80911">
        <ele>170.48</ele>
        <time>2019-10-04T11:47:21.001Z</time>
      </trkpt>
      <trkpt lat="46.23524" lon="4.80873">
        <ele>171.268</ele>
        <time>2019-10-04T11:48:06.001Z</time>
      </trkpt>
      <trkpt lat="46.23474" lon="4.80821">
        <ele>169.234</ele>
        <time>2019-10-04T11:48:42.001Z</time>
      </trkpt>
      <trkpt lat="46.23443" lon="4.80795">
        <ele>169.055</ele>
        <time>2019-10-04T11:50:03.001Z</time>
      </trkpt>
      <trkpt lat="46.23357" lon="4.80704">
        <ele>171.832</ele>
        <time>2019-10-04T11:50:33.001Z</time>
      </trkpt>
      <trkpt lat="46.2326" lon="4.80593">
        <ele>172.091</ele>
        <time>2019-10-04T11:51:03.001Z</time>
      </trkpt>
      <trkpt lat="46.23165" lon="4.80477">
        <ele>174.537</ele>
        <time>2019-10-04T11:51:33.001Z</time>
      </trkpt>
      <trkpt lat="46.23065" lon="4.80369">
        <ele>173.028</ele>
        <time>2019-10-04T11:52:03.001Z</time>
      </trkpt>
      <trkpt lat="46.22975" lon="4.80285">
        <ele>171.755</ele>
        <time>2019-10-04T11:52:33.001Z</time>
      </trkpt>
      <trkpt lat="46.22942" lon="4.80264">
        <ele>172.786</ele>
        <time>2019-10-04T11:54:30.001Z</time>
      </trkpt>
      <trkpt lat="46.22844" lon="4.80184">
        <ele>175.408</ele>
        <time>2019-10-04T11:55:03.001Z</time>
      </trkpt>
      <trkpt lat="46.2275" lon="4.80128">
        <ele>172.734</ele>
        <time>2019-10-04T11:55:33.001Z</time>
      </trkpt>
      <trkpt lat="46.22657" lon="4.80076">
        <ele>171.491</ele>
        <time>2019-10-04T11:56:03.001Z</time>
      </trkpt>
      <trkpt lat="46.22552" lon="4.8003">
        <ele>171.224</ele>
        <time>2019-10-04T11:56:33.001Z</time>
      </trkpt>
      <trkpt lat="46.2245" lon="4.79988">
        <ele>174.006</ele>
        <time>2019-10-04T11:57:03.001Z</time>
      </trkpt>
      <trkpt lat="46.22335" lon="4.79932">
        <ele>175.836</ele>
        <time>2019-10-04T11:57:33.001Z</time>
      </trkpt>
      <trkpt lat="46.22228" lon="4.79886">
        <ele>173.938</ele>
        <time>2019-10-04T11:58:03.001Z</time>
      </trkpt>
      <trkpt lat="46.22119" lon="4.79825">
        <ele>172.229</ele>
        <time>2019-10-04T11:58:33.001Z</time>
      </trkpt>
      <trkpt lat="46.22017" lon="4.79758">
        <ele>172.881</ele>
        <time>2019-10-04T11:59:03.001Z</time>
      </trkpt>
      <trkpt lat="46.21911" lon="4.79685">
        <ele>177.234</ele>
        <time>2019-10-04T11:59:33.001Z</time>
      </trkpt>
      <trkpt lat="46.218" lon="4.79627">
        <ele>174.733</ele>
        <time>2019-10-04T12:00:03.001Z</time>
      </trkpt>
      <trkpt lat="46.21689" lon="4.79582">
        <ele>174.486</ele>
        <time>2019-10-04T12:00:33.001Z</time>
      </trkpt>
      <trkpt lat="46.21558" lon="4.79542">
        <ele>170.378</ele>
        <time>2019-10-04T12:01:03.001Z</time>
      </trkpt>
      <trkpt lat="46.21434" lon="4.79505">
        <ele>169.582</ele>
        <time>2019-10-04T12:01:33.001Z</time>
      </trkpt>
      <trkpt lat="46.21312" lon="4.79482">
        <ele>171.979</ele>
        <time>2019-10-04T12:02:03.001Z</time>
      </trkpt>
      <trkpt lat="46.2119" lon="4.79468">
        <ele>171.758</ele>
        <time>2019-10-04T12:02:33.001Z</time>
      </trkpt>
      <trkpt lat="46.21061" lon="4.7946">
        <ele>171.47</ele>
        <time>2019-10-04T12:03:03.001Z</time>
      </trkpt>
      <trkpt lat="46.20935" lon="4.79463">
        <ele>171.308</ele>
        <time>2019-10-04T12:03:33.001Z</time>
      </trkpt>
      <trkpt lat="46.20819" lon="4.79482">
        <ele>171.176</ele>
        <time>2019-10-04T12:04:03.001Z</time>
      </trkpt>
      <trkpt lat="46.20713" lon="4.7949">
        <ele>172.097</ele>
        <time>2019-10-04T12:04:33.001Z</time>
      </trkpt>
      <trkpt lat="46.20634" lon="4.79489">
        <ele>170.686</ele>
        <time>2019-10-04T12:05:03.001Z</time>
      </trkpt>
      <trkpt lat="46.20556" lon="4.79551">
        <ele>173.053</ele>
        <time>2019-10-04T12:05:33.001Z</time>
      </trkpt>
      <trkpt lat="46.20454" lon="4.79579">
        <ele>171.948</ele>
        <time>2019-10-04T12:06:03.001Z</time>
      </trkpt>
      <trkpt lat="46.20363" lon="4.79595">
        <ele>169.074</ele>
        <time>2019-10-04T12:06:33.001Z</time>
      </trkpt>
      <trkpt lat="46.20265" lon="4.79577">
        <ele>169.016</ele>
        <time>2019-10-04T12:07:03.001Z</time>
      </trkpt>
      <trkpt lat="46.20181" lon="4.79509">
        <ele>172.564</ele>
        <time>2019-10-04T12:07:33.001Z</time>
      </trkpt>
      <trkpt lat="46.20089" lon="4.79424">
        <ele>176.108</ele>
        <time>2019-10-04T12:08:03.001Z</time>
      </trkpt>
      <trkpt lat="46.20001" lon="4.79317">
        <ele>172.687</ele>
        <time>2019-10-04T12:08:33.001Z</time>
      </trkpt>
      <trkpt lat="46.19907" lon="4.79204">
        <ele>171.627</ele>
        <time>2019-10-04T12:09:03.001Z</time>
      </trkpt>
      <trkpt lat="46.19808" lon="4.7909">
        <ele>172.106</ele>
        <time>2019-10-04T12:09:33.001Z</time>
      </trkpt>
      <trkpt lat="46.19711" lon="4.79008">
        <ele>173.465</ele>
        <time>2019-10-04T12:10:06.001Z</time>
      </trkpt>
      <trkpt lat="46.19595" lon="4.79132">
        <ele>172.961</ele>
        <time>2019-10-04T12:10:36.001Z</time>
      </trkpt>
      <trkpt lat="46.19495" lon="4.79259">
        <ele>174.937</ele>
        <time>2019-10-04T12:11:06.001Z</time>
      </trkpt>
      <trkpt lat="46.19376" lon="4.79396">
        <ele>169.796</ele>
        <time>2019-10-04T12:11:36.001Z</time>
      </trkpt>
      <trkpt lat="46.1927" lon="4.79526">
        <ele>168.955</ele>
        <time>2019-10-04T12:12:06.001Z</time>
      </trkpt>
      <trkpt lat="46.19162" lon="4.79643">
        <ele>170.098</ele>
        <time>2019-10-04T12:12:36.001Z</time>
      </trkpt>
      <trkpt lat="46.19058" lon="4.79753">
        <ele>174.584</ele>
        <time>2019-10-04T12:13:06.001Z</time>
      </trkpt>
      <trkpt lat="46.18954" lon="4.79876">
        <ele>174.327</ele>
        <time>2019-10-04T12:13:36.001Z</time>
      </trkpt>
      <trkpt lat="46.18847" lon="4.80003">
        <ele>173.715</ele>
        <time>2019-10-04T12:14:06.001Z</time>
      </trkpt>
      <trkpt lat="46.18742" lon="4.80124">
        <ele>172.902</ele>
        <time>2019-10-04T12:14:36.001Z</time>
      </trkpt>
      <trkpt lat="46.18641" lon="4.80244">
        <ele>171.3</ele>
        <time>2019-10-04T12:15:06.001Z</time>
      </trkpt>
      <trkpt lat="46.18544" lon="4.80363">
        <ele>170.54</ele>
        <time>2019-10-04T12:15:36.001Z</time>
      </trkpt>
      <trkpt lat="46.1844" lon="4.80462">
        <ele>171.63</ele>
        <time>2019-10-04T12:16:06.001Z</time>
      </trkpt>
      <trkpt lat="46.18345" lon="4.80332">
        <ele>169.674</ele>
        <time>2019-10-04T12:16:36.001Z</time>
      </trkpt>
      <trkpt lat="46.18204" lon="4.80317">
        <ele>171.481</ele>
        <time>2019-10-04T12:17:06.001Z</time>
      </trkpt>
      <trkpt lat="46.18113" lon="4.80262">
        <ele>173.947</ele>
        <time>2019-10-04T12:17:36.001Z</time>
      </trkpt>
      <trkpt lat="46.18043" lon="4.8026">
        <ele>183.288</ele>
        <time>2019-10-04T12:18:06.001Z</time>
      </trkpt>
      <trkpt lat="46.17959" lon="4.80337">
        <ele>194.139</ele>
        <time>2019-10-04T12:18:36.001Z</time>
      </trkpt>
      <trkpt lat="46.17885" lon="4.80457">
        <ele>192.904</ele>
        <time>2019-10-04T12:19:06.001Z</time>
      </trkpt>
      <trkpt lat="46.17797" lon="4.80513">
        <ele>183.44</ele>
        <time>2019-10-04T12:19:36.001Z</time>
      </trkpt>
      <trkpt lat="46.17683" lon="4.80431">
        <ele>179.083</ele>
        <time>2019-10-04T12:20:06.001Z</time>
      </trkpt>
      <trkpt lat="46.17535" lon="4.80398">
        <ele>175.15</ele>
        <time>2019-10-04T12:20:36.001Z</time>
      </trkpt>
      <trkpt lat="46.17411" lon="4.805">
        <ele>177.819</ele>
        <time>2019-10-04T12:21:06.001Z</time>
      </trkpt>
      <trkpt lat="46.17323" lon="4.80433">
        <ele>185.902</ele>
        <time>2019-10-04T12:21:36.001Z</time>
      </trkpt>
      <trkpt lat="46.17251" lon="4.80296">
        <ele>190.539</ele>
        <time>2019-10-04T12:22:06.001Z</time>
      </trkpt>
      <trkpt lat="46.17224" lon="4.80183">
        <ele>179.078</ele>
        <time>2019-10-04T12:22:36.001Z</time>
      </trkpt>
      <trkpt lat="46.17184" lon="4.80193">
        <ele>180.571</ele>
        <time>2019-10-04T12:28:51.001Z</time>
      </trkpt>
      <trkpt lat="46.17104" lon="4.80156">
        <ele>178.021</ele>
        <time>2019-10-04T12:29:21.001Z</time>
      </trkpt>
      <trkpt lat="46.16999" lon="4.802">
        <ele>180.761</ele>
        <time>2019-10-04T12:29:51.001Z</time>
      </trkpt>
      <trkpt lat="46.16978" lon="4.80337">
        <ele>183.664</ele>
        <time>2019-10-04T12:30:21.001Z</time>
      </trkpt>
      <trkpt lat="46.16932" lon="4.80406">
        <ele>171.102</ele>
        <time>2019-10-04T12:30:51.001Z</time>
      </trkpt>
      <trkpt lat="46.16841" lon="4.80423">
        <ele>168.348</ele>
        <time>2019-10-04T12:31:24.001Z</time>
      </trkpt>
      <trkpt lat="46.16738" lon="4.80429">
        <ele>172.229</ele>
        <time>2019-10-04T12:31:54.001Z</time>
      </trkpt>
      <trkpt lat="46.16621" lon="4.80467">
        <ele>168.656</ele>
        <time>2019-10-04T12:32:24.001Z</time>
      </trkpt>
      <trkpt lat="46.16514" lon="4.80531">
        <ele>167.853</ele>
        <time>2019-10-04T12:32:54.001Z</time>
      </trkpt>
      <trkpt lat="46.16419" lon="4.80596">
        <ele>169.78</ele>
        <time>2019-10-04T12:33:24.001Z</time>
      </trkpt>
      <trkpt lat="46.16315" lon="4.80667">
        <ele>170.697</ele>
        <time>2019-10-04T12:33:54.001Z</time>
      </trkpt>
      <trkpt lat="46.16203" lon="4.80716">
        <ele>170.077</ele>
        <time>2019-10-04T12:34:24.001Z</time>
      </trkpt>
      <trkpt lat="46.16098" lon="4.80733">
        <ele>169.952</ele>
        <time>2019-10-04T12:34:54.001Z</time>
      </trkpt>
      <trkpt lat="46.15995" lon="4.8077">
        <ele>170.655</ele>
        <time>2019-10-04T12:35:24.001Z</time>
      </trkpt>
      <trkpt lat="46.15894" lon="4.80843">
        <ele>167.78</ele>
        <time>2019-10-04T12:35:54.001Z</time>
      </trkpt>
      <trkpt lat="46.15837" lon="4.80873">
        <ele>167.924</ele>
        <time>2019-10-04T12:36:51.001Z</time>
      </trkpt>
      <trkpt lat="46.15821" lon="4.80777">
        <ele>171.409</ele>
        <time>2019-10-04T12:37:24.001Z</time>
      </trkpt>
      <trkpt lat="46.15778" lon="4.80651">
        <ele>170.327</ele>
        <time>2019-10-04T12:37:54.001Z</time>
      </trkpt>
      <trkpt lat="46.15732" lon="4.80532">
        <ele>171.812</ele>
        <time>2019-10-04T12:38:24.001Z</time>
      </trkpt>
      <trkpt lat="46.15669" lon="4.80478">
        <ele>175.843</ele>
        <time>2019-10-04T12:38:54.001Z</time>
      </trkpt>
      <trkpt lat="46.15549" lon="4.80523">
        <ele>176.38</ele>
        <time>2019-10-04T12:39:24.001Z</time>
      </trkpt>
      <trkpt lat="46.15434" lon="4.80529">
        <ele>176.761</ele>
        <time>2019-10-04T12:39:54.001Z</time>
      </trkpt>
      <trkpt lat="46.15317" lon="4.80497">
        <ele>174.561</ele>
        <time>2019-10-04T12:40:24.001Z</time>
      </trkpt>
      <trkpt lat="46.15199" lon="4.80458">
        <ele>171.702</ele>
        <time>2019-10-04T12:40:54.001Z</time>
      </trkpt>
      <trkpt lat="46.15072" lon="4.80416">
        <ele>172.7</ele>
        <time>2019-10-04T12:41:24.001Z</time>
      </trkpt>
      <trkpt lat="46.14946" lon="4.80378">
        <ele>166.412</ele>
        <time>2019-10-04T12:41:54.001Z</time>
      </trkpt>
      <trkpt lat="46.14827" lon="4.80329">
        <ele>165.201</ele>
        <time>2019-10-04T12:42:24.001Z</time>
      </trkpt>
      <trkpt lat="46.14711" lon="4.80281">
        <ele>166.277</ele>
        <time>2019-10-04T12:42:54.001Z</time>
      </trkpt>
      <trkpt lat="46.14591" lon="4.80252">
        <ele>163.886</ele>
        <time>2019-10-04T12:43:24.001Z</time>
      </trkpt>
      <trkpt lat="46.14468" lon="4.80222">
        <ele>166.035</ele>
        <time>2019-10-04T12:43:54.001Z</time>
      </trkpt>
      <trkpt lat="46.1436" lon="4.80184">
        <ele>165.284</ele>
        <time>2019-10-04T12:44:24.001Z</time>
      </trkpt>
      <trkpt lat="46.14238" lon="4.80118">
        <ele>166.772</ele>
        <time>2019-10-04T12:44:54.001Z</time>
      </trkpt>
      <trkpt lat="46.14119" lon="4.80031">
        <ele>165.399</ele>
        <time>2019-10-04T12:45:24.001Z</time>
      </trkpt>
      <trkpt lat="46.1402" lon="4.79922">
        <ele>163.054</ele>
        <time>2019-10-04T12:45:54.001Z</time>
      </trkpt>
      <trkpt lat="46.13918" lon="4.79812">
        <ele>166.286</ele>
        <time>2019-10-04T12:46:24.001Z</time>
      </trkpt>
      <trkpt lat="46.13806" lon="4.79688">
        <ele>171.887</ele>
        <time>2019-10-04T12:46:57.001Z</time>
      </trkpt>
      <trkpt lat="46.13714" lon="4.79588">
        <ele>172.2</ele>
        <time>2019-10-04T12:47:27.001Z</time>
      </trkpt>
      <trkpt lat="46.13621" lon="4.79493">
        <ele>169.339</ele>
        <time>2019-10-04T12:47:57.001Z</time>
      </trkpt>
      <trkpt lat="46.13534" lon="4.79411">
        <ele>168.46</ele>
        <time>2019-10-04T12:48:27.001Z</time>
      </trkpt>
      <trkpt lat="46.13446" lon="4.79328">
        <ele>165.876</ele>
        <time>2019-10-04T12:48:57.001Z</time>
      </trkpt>
      <trkpt lat="46.13359" lon="4.79248">
        <ele>165.768</ele>
        <time>2019-10-04T12:49:27.001Z</time>
      </trkpt>
      <trkpt lat="46.13275" lon="4.79171">
        <ele>164.992</ele>
        <time>2019-10-04T12:49:57.001Z</time>
      </trkpt>
      <trkpt lat="46.1319" lon="4.79074">
        <ele>167.17</ele>
        <time>2019-10-04T12:50:27.001Z</time>
      </trkpt>
      <trkpt lat="46.1311" lon="4.78975">
        <ele>169.231</ele>
        <time>2019-10-04T12:50:57.001Z</time>
      </trkpt>
      <trkpt lat="46.13032" lon="4.78895">
        <ele>166.594</ele>
        <time>2019-10-04T12:51:27.001Z</time>
      </trkpt>
      <trkpt lat="46.12949" lon="4.7881">
        <ele>166.205</ele>
        <time>2019-10-04T12:51:57.001Z</time>
      </trkpt>
      <trkpt lat="46.12869" lon="4.78707">
        <ele>166.44</ele>
        <time>2019-10-04T12:52:27.001Z</time>
      </trkpt>
      <trkpt lat="46.12789" lon="4.78599">
        <ele>166.398</ele>
        <time>2019-10-04T12:52:57.001Z</time>
      </trkpt>
      <trkpt lat="46.12718" lon="4.785">
        <ele>169.729</ele>
        <time>2019-10-04T12:53:27.001Z</time>
      </trkpt>
      <trkpt lat="46.12638" lon="4.78396">
        <ele>171.037</ele>
        <time>2019-10-04T12:53:57.001Z</time>
      </trkpt>
      <trkpt lat="46.12555" lon="4.78286">
        <ele>170.612</ele>
        <time>2019-10-04T12:54:27.001Z</time>
      </trkpt>
      <trkpt lat="46.12474" lon="4.78182">
        <ele>171.258</ele>
        <time>2019-10-04T12:54:57.001Z</time>
      </trkpt>
      <trkpt lat="46.12392" lon="4.78077">
        <ele>171.254</ele>
        <time>2019-10-04T12:55:27.001Z</time>
      </trkpt>
      <trkpt lat="46.12299" lon="4.77972">
        <ele>168.258</ele>
        <time>2019-10-04T12:55:57.001Z</time>
      </trkpt>
      <trkpt lat="46.12222" lon="4.77882">
        <ele>167.197</ele>
        <time>2019-10-04T12:56:27.001Z</time>
      </trkpt>
      <trkpt lat="46.12144" lon="4.77788">
        <ele>164.397</ele>
        <time>2019-10-04T12:56:57.001Z</time>
      </trkpt>
      <trkpt lat="46.12036" lon="4.77682">
        <ele>167.655</ele>
        <time>2019-10-04T12:57:27.001Z</time>
      </trkpt>
      <trkpt lat="46.11916" lon="4.77616">
        <ele>169.604</ele>
        <time>2019-10-04T12:57:57.001Z</time>
      </trkpt>
      <trkpt lat="46.11795" lon="4.77552">
        <ele>169.19</ele>
        <time>2019-10-04T12:58:27.001Z</time>
      </trkpt>
      <trkpt lat="46.11686" lon="4.77476">
        <ele>167.737</ele>
        <time>2019-10-04T12:58:57.001Z</time>
      </trkpt>
      <trkpt lat="46.11578" lon="4.77405">
        <ele>165.862</ele>
        <time>2019-10-04T12:59:27.001Z</time>
      </trkpt>
      <trkpt lat="46.11458" lon="4.7736">
        <ele>165.023</ele>
        <time>2019-10-04T12:59:57.001Z</time>
      </trkpt>
      <trkpt lat="46.11339" lon="4.77334">
        <ele>166.962</ele>
        <time>2019-10-04T13:00:27.001Z</time>
      </trkpt>
      <trkpt lat="46.11222" lon="4.77319">
        <ele>164.075</ele>
        <time>2019-10-04T13:00:57.001Z</time>
      </trkpt>
      <trkpt lat="46.11102" lon="4.77288">
        <ele>168.177</ele>
        <time>2019-10-04T13:01:27.001Z</time>
      </trkpt>
      <trkpt lat="46.11002" lon="4.77227">
        <ele>170.116</ele>
        <time>2019-10-04T13:01:57.001Z</time>
      </trkpt>
      <trkpt lat="46.10903" lon="4.77119">
        <ele>169.271</ele>
        <time>2019-10-04T13:02:30.001Z</time>
      </trkpt>
      <trkpt lat="46.10816" lon="4.76995">
        <ele>167.652</ele>
        <time>2019-10-04T13:03:00Z</time>
      </trkpt>
      <trkpt lat="46.10716" lon="4.76886">
        <ele>166.165</ele>
        <time>2019-10-04T13:03:30.001Z</time>
      </trkpt>
      <trkpt lat="46.10619" lon="4.76788">
        <ele>166.769</ele>
        <time>2019-10-04T13:04:00Z</time>
      </trkpt>
      <trkpt lat="46.10515" lon="4.76687">
        <ele>167.053</ele>
        <time>2019-10-04T13:04:30.001Z</time>
      </trkpt>
      <trkpt lat="46.10414" lon="4.76587">
        <ele>170.908</ele>
        <time>2019-10-04T13:05:00Z</time>
      </trkpt>
      <trkpt lat="46.10306" lon="4.76485">
        <ele>172.207</ele>
        <time>2019-10-04T13:05:30.001Z</time>
      </trkpt>
      <trkpt lat="46.10229" lon="4.76343">
        <ele>165.838</ele>
        <time>2019-10-04T13:06:00Z</time>
      </trkpt>
      <trkpt lat="46.10139" lon="4.76276">
        <ele>166.568</ele>
        <time>2019-10-04T13:06:30.001Z</time>
      </trkpt>
      <trkpt lat="46.10035" lon="4.76175">
        <ele>169.231</ele>
        <time>2019-10-04T13:07:00Z</time>
      </trkpt>
      <trkpt lat="46.09944" lon="4.76068">
        <ele>168.837</ele>
        <time>2019-10-04T13:07:30.001Z</time>
      </trkpt>
      <trkpt lat="46.09857" lon="4.75963">
        <ele>166.53</ele>
        <time>2019-10-04T13:08:00Z</time>
      </trkpt>
      <trkpt lat="46.09761" lon="4.75863">
        <ele>169.427</ele>
        <time>2019-10-04T13:08:30.001Z</time>
      </trkpt>
      <trkpt lat="46.09653" lon="4.75764">
        <ele>167.522</ele>
        <time>2019-10-04T13:09:00Z</time>
      </trkpt>
      <trkpt lat="46.09537" lon="4.75687">
        <ele>171.75</ele>
        <time>2019-10-04T13:09:30.001Z</time>
      </trkpt>
      <trkpt lat="46.0942" lon="4.75623">
        <ele>168.681</ele>
        <time>2019-10-04T13:10:00Z</time>
      </trkpt>
      <trkpt lat="46.09307" lon="4.75563">
        <ele>168.886</ele>
        <time>2019-10-04T13:10:30.001Z</time>
      </trkpt>
      <trkpt lat="46.0919" lon="4.75512">
        <ele>169.159</ele>
        <time>2019-10-04T13:11:00Z</time>
      </trkpt>
      <trkpt lat="46.09066" lon="4.75461">
        <ele>169.971</ele>
        <time>2019-10-04T13:11:30.001Z</time>
      </trkpt>
      <trkpt lat="46.08939" lon="4.7541">
        <ele>171.188</ele>
        <time>2019-10-04T13:12:00Z</time>
      </trkpt>
      <trkpt lat="46.08811" lon="4.75357">
        <ele>173.502</ele>
        <time>2019-10-04T13:12:30.001Z</time>
      </trkpt>
      <trkpt lat="46.08659" lon="4.75312">
        <ele>171.45</ele>
        <time>2019-10-04T13:13:00Z</time>
      </trkpt>
      <trkpt lat="46.08584" lon="4.75299">
        <ele>173.769</ele>
        <time>2019-10-04T13:17:00Z</time>
      </trkpt>
      <trkpt lat="46.08579" lon="4.75298">
        <ele>171.009</ele>
        <time>2019-10-04T13:26:39.001Z</time>
      </trkpt>
      <trkpt lat="46.08579" lon="4.75298">
        <ele>170.382</ele>
        <time>2019-10-04T13:44:48.001Z</time>
      </trkpt>
      <trkpt lat="46.08571" lon="4.75296">
        <ele>169.23</ele>
        <time>2019-10-04T13:52:57.001Z</time>
      </trkpt>
      <trkpt lat="46.08518" lon="4.75297">
        <ele>172.762</ele>
        <time>2019-10-04T13:53:36.001Z</time>
      </trkpt>
      <trkpt lat="46.08399" lon="4.75304">
        <ele>170.269</ele>
        <time>2019-10-04T13:54:06.001Z</time>
      </trkpt>
      <trkpt lat="46.0827" lon="4.75335">
        <ele>173.269</ele>
        <time>2019-10-04T13:54:36.001Z</time>
      </trkpt>
      <trkpt lat="46.08182" lon="4.75465">
        <ele>169.474</ele>
        <time>2019-10-04T13:55:06.001Z</time>
      </trkpt>
      <trkpt lat="46.08082" lon="4.75562">
        <ele>167.092</ele>
        <time>2019-10-04T13:55:39.001Z</time>
      </trkpt>
      <trkpt lat="46.08049" lon="4.75599">
        <ele>176.849</ele>
        <time>2019-10-04T13:56:48.001Z</time>
      </trkpt>
      <trkpt lat="46.07949" lon="4.75709">
        <ele>173.695</ele>
        <time>2019-10-04T13:57:18.001Z</time>
      </trkpt>
      <trkpt lat="46.07841" lon="4.75815">
        <ele>170.749</ele>
        <time>2019-10-04T13:57:48.001Z</time>
      </trkpt>
      <trkpt lat="46.07726" lon="4.75925">
        <ele>169.994</ele>
        <time>2019-10-04T13:58:18.001Z</time>
      </trkpt>
      <trkpt lat="46.07621" lon="4.76001">
        <ele>170.782</ele>
        <time>2019-10-04T13:58:48.001Z</time>
      </trkpt>
      <trkpt lat="46.07515" lon="4.76066">
        <ele>172.111</ele>
        <time>2019-10-04T13:59:18.001Z</time>
      </trkpt>
      <trkpt lat="46.07396" lon="4.76114">
        <ele>169.922</ele>
        <time>2019-10-04T13:59:48.001Z</time>
      </trkpt>
      <trkpt lat="46.07268" lon="4.76156">
        <ele>173.042</ele>
        <time>2019-10-04T14:00:18.001Z</time>
      </trkpt>
      <trkpt lat="46.07166" lon="4.7621">
        <ele>175.455</ele>
        <time>2019-10-04T14:00:48.001Z</time>
      </trkpt>
      <trkpt lat="46.0706" lon="4.76261">
        <ele>170.926</ele>
        <time>2019-10-04T14:01:18.001Z</time>
      </trkpt>
      <trkpt lat="46.06959" lon="4.76314">
        <ele>165.56</ele>
        <time>2019-10-04T14:01:48.001Z</time>
      </trkpt>
      <trkpt lat="46.0685" lon="4.76344">
        <ele>164.956</ele>
        <time>2019-10-04T14:02:18.001Z</time>
      </trkpt>
      <trkpt lat="46.06752" lon="4.76389">
        <ele>165.827</ele>
        <time>2019-10-04T14:02:48.001Z</time>
      </trkpt>
      <trkpt lat="46.06657" lon="4.7638">
        <ele>170.852</ele>
        <time>2019-10-04T14:03:18.001Z</time>
      </trkpt>
      <trkpt lat="46.06537" lon="4.7637">
        <ele>179.84</ele>
        <time>2019-10-04T14:03:48.001Z</time>
      </trkpt>
      <trkpt lat="46.06405" lon="4.76323">
        <ele>176.316</ele>
        <time>2019-10-04T14:04:18.001Z</time>
      </trkpt>
      <trkpt lat="46.06277" lon="4.76264">
        <ele>168.018</ele>
        <time>2019-10-04T14:04:48.001Z</time>
      </trkpt>
      <trkpt lat="46.06168" lon="4.76186">
        <ele>170.318</ele>
        <time>2019-10-04T14:05:18.001Z</time>
      </trkpt>
      <trkpt lat="46.06058" lon="4.76112">
        <ele>177.378</ele>
        <time>2019-10-04T14:05:48.001Z</time>
      </trkpt>
      <trkpt lat="46.05936" lon="4.76143">
        <ele>170.093</ele>
        <time>2019-10-04T14:06:18.001Z</time>
      </trkpt>
      <trkpt lat="46.05837" lon="4.76141">
        <ele>167.74</ele>
        <time>2019-10-04T14:06:48.001Z</time>
      </trkpt>
      <trkpt lat="46.05742" lon="4.76147">
        <ele>167.866</ele>
        <time>2019-10-04T14:07:18.001Z</time>
      </trkpt>
      <trkpt lat="46.05645" lon="4.76169">
        <ele>171.263</ele>
        <time>2019-10-04T14:07:48.001Z</time>
      </trkpt>
      <trkpt lat="46.05537" lon="4.76278">
        <ele>174.761</ele>
        <time>2019-10-04T14:08:18.001Z</time>
      </trkpt>
      <trkpt lat="46.05436" lon="4.76375">
        <ele>179.399</ele>
        <time>2019-10-04T14:08:48.001Z</time>
      </trkpt>
      <trkpt lat="46.05359" lon="4.76272">
        <ele>170.77</ele>
        <time>2019-10-04T14:09:18.001Z</time>
      </trkpt>
      <trkpt lat="46.05321" lon="4.76178">
        <ele>168.294</ele>
        <time>2019-10-04T14:13:33.001Z</time>
      </trkpt>
      <trkpt lat="46.05266" lon="4.76046">
        <ele>166.904</ele>
        <time>2019-10-04T14:14:03.001Z</time>
      </trkpt>
      <trkpt lat="46.05213" lon="4.7592">
        <ele>168.516</ele>
        <time>2019-10-04T14:14:33.001Z</time>
      </trkpt>
      <trkpt lat="46.05153" lon="4.75791">
        <ele>167.039</ele>
        <time>2019-10-04T14:15:03.001Z</time>
      </trkpt>
      <trkpt lat="46.05069" lon="4.75734">
        <ele>167.47</ele>
        <time>2019-10-04T14:15:36.001Z</time>
      </trkpt>
      <trkpt lat="46.04977" lon="4.7566">
        <ele>174.967</ele>
        <time>2019-10-04T14:16:06.001Z</time>
      </trkpt>
      <trkpt lat="46.04868" lon="4.75591">
        <ele>185.157</ele>
        <time>2019-10-04T14:16:36.001Z</time>
      </trkpt>
      <trkpt lat="46.04731" lon="4.75541">
        <ele>179.386</ele>
        <time>2019-10-04T14:17:06.001Z</time>
      </trkpt>
      <trkpt lat="46.04615" lon="4.75443">
        <ele>177.685</ele>
        <time>2019-10-04T14:17:36.001Z</time>
      </trkpt>
      <trkpt lat="46.045" lon="4.75439">
        <ele>180.095</ele>
        <time>2019-10-04T14:18:06.001Z</time>
      </trkpt>
      <trkpt lat="46.04382" lon="4.75489">
        <ele>184.972</ele>
        <time>2019-10-04T14:18:36.001Z</time>
      </trkpt>
      <trkpt lat="46.04266" lon="4.75519">
        <ele>183.613</ele>
        <time>2019-10-04T14:19:06.001Z</time>
      </trkpt>
      <trkpt lat="46.04157" lon="4.7553">
        <ele>184.737</ele>
        <time>2019-10-04T14:19:36.001Z</time>
      </trkpt>
      <trkpt lat="46.04044" lon="4.75537">
        <ele>182.253</ele>
        <time>2019-10-04T14:20:06.001Z</time>
      </trkpt>
      <trkpt lat="46.03932" lon="4.75603">
        <ele>185.804</ele>
        <time>2019-10-04T14:20:36.001Z</time>
      </trkpt>
      <trkpt lat="46.03825" lon="4.75619">
        <ele>187.407</ele>
        <time>2019-10-04T14:21:06.001Z</time>
      </trkpt>
      <trkpt lat="46.0367" lon="4.75606">
        <ele>187.192</ele>
        <time>2019-10-04T14:21:36.001Z</time>
      </trkpt>
      <trkpt lat="46.03501" lon="4.75606">
        <ele>186.627</ele>
        <time>2019-10-04T14:22:06.001Z</time>
      </trkpt>
      <trkpt lat="46.03322" lon="4.75626">
        <ele>185.03</ele>
        <time>2019-10-04T14:22:36.001Z</time>
      </trkpt>
      <trkpt lat="46.03146" lon="4.75543">
        <ele>186.59</ele>
        <time>2019-10-04T14:23:06.001Z</time>
      </trkpt>
      <trkpt lat="46.02963" lon="4.7544">
        <ele>182</ele>
        <time>2019-10-04T14:23:36.001Z</time>
      </trkpt>
      <trkpt lat="46.02727" lon="4.75326">
        <ele>173.595</ele>
        <time>2019-10-04T14:24:06.001Z</time>
      </trkpt>
      <trkpt lat="46.02561" lon="4.7528">
        <ele>177.702</ele>
        <time>2019-10-04T14:24:36.001Z</time>
      </trkpt>
      <trkpt lat="46.0239" lon="4.75271">
        <ele>177.67</ele>
        <time>2019-10-04T14:25:06.001Z</time>
      </trkpt>
      <trkpt lat="46.02251" lon="4.75287">
        <ele>184.376</ele>
        <time>2019-10-04T14:25:36.001Z</time>
      </trkpt>
      <trkpt lat="46.02094" lon="4.75328">
        <ele>184.698</ele>
        <time>2019-10-04T14:26:06.001Z</time>
      </trkpt>
      <trkpt lat="46.01861" lon="4.75342">
        <ele>176.686</ele>
        <time>2019-10-04T14:26:36.001Z</time>
      </trkpt>
      <trkpt lat="46.01663" lon="4.75346">
        <ele>175.124</ele>
        <time>2019-10-04T14:27:06.001Z</time>
      </trkpt>
      <trkpt lat="46.01488" lon="4.7531">
        <ele>174.532</ele>
        <time>2019-10-04T14:27:36.001Z</time>
      </trkpt>
      <trkpt lat="46.01325" lon="4.75268">
        <ele>173.428</ele>
        <time>2019-10-04T14:28:06.001Z</time>
      </trkpt>
      <trkpt lat="46.01165" lon="4.75216">
        <ele>172.927</ele>
        <time>2019-10-04T14:28:36.001Z</time>
      </trkpt>
      <trkpt lat="46.0099" lon="4.75163">
        <ele>177.071</ele>
        <time>2019-10-04T14:29:06.001Z</time>
      </trkpt>
      <trkpt lat="46.00816" lon="4.75114">
        <ele>184.45</ele>
        <time>2019-10-04T14:29:36.001Z</time>
      </trkpt>
      <trkpt lat="46.00621" lon="4.75084">
        <ele>185.75</ele>
        <time>2019-10-04T14:30:06.001Z</time>
      </trkpt>
      <trkpt lat="46.00426" lon="4.75089">
        <ele>179.149</ele>
        <time>2019-10-04T14:30:39.001Z</time>
      </trkpt>
      <trkpt lat="46.00271" lon="4.7511">
        <ele>184.561</ele>
        <time>2019-10-04T14:31:09.001Z</time>
      </trkpt>
      <trkpt lat="46.00099" lon="4.75111">
        <ele>191.081</ele>
        <time>2019-10-04T14:31:39.001Z</time>
      </trkpt>
      <trkpt lat="45.99916" lon="4.75105">
        <ele>185.25</ele>
        <time>2019-10-04T14:32:09.001Z</time>
      </trkpt>
      <trkpt lat="45.99857" lon="4.7511">
        <ele>179.197</ele>
        <time>2019-10-04T14:33:39.001Z</time>
      </trkpt>
      <trkpt lat="45.99723" lon="4.75147">
        <ele>176.341</ele>
        <time>2019-10-04T14:34:09.001Z</time>
      </trkpt>
      <trkpt lat="45.9961" lon="4.75143">
        <ele>172.78</ele>
        <time>2019-10-04T14:34:39.001Z</time>
      </trkpt>
      <trkpt lat="45.99521" lon="4.75195">
        <ele>174.588</ele>
        <time>2019-10-04T14:35:09.001Z</time>
      </trkpt>
      <trkpt lat="45.99407" lon="4.75224">
        <ele>177.763</ele>
        <time>2019-10-04T14:35:39.001Z</time>
      </trkpt>
      <trkpt lat="45.99283" lon="4.75222">
        <ele>178.091</ele>
        <time>2019-10-04T14:36:09.001Z</time>
      </trkpt>
      <trkpt lat="45.99149" lon="4.752">
        <ele>177.275</ele>
        <time>2019-10-04T14:36:39.001Z</time>
      </trkpt>
      <trkpt lat="45.99016" lon="4.75191">
        <ele>178.051</ele>
        <time>2019-10-04T14:37:09.001Z</time>
      </trkpt>
      <trkpt lat="45.98895" lon="4.75209">
        <ele>185.215</ele>
        <time>2019-10-04T14:37:39.001Z</time>
      </trkpt>
      <trkpt lat="45.98761" lon="4.75217">
        <ele>176.257</ele>
        <time>2019-10-04T14:38:09.001Z</time>
      </trkpt>
      <trkpt lat="45.98721" lon="4.75209">
        <ele>172.377</ele>
        <time>2019-10-04T14:38:45.001Z</time>
      </trkpt>
      <trkpt lat="45.98714" lon="4.75215">
        <ele>172.855</ele>
        <time>2019-10-04T14:39:45.001Z</time>
      </trkpt>
      <trkpt lat="45.98702" lon="4.75275">
        <ele>176.473</ele>
        <time>2019-10-04T14:40:45.001Z</time>
      </trkpt>
      <trkpt lat="45.98687" lon="4.75404">
        <ele>182.507</ele>
        <time>2019-10-04T14:41:15.001Z</time>
      </trkpt>
      <trkpt lat="45.9857" lon="4.75438">
        <ele>184.65</ele>
        <time>2019-10-04T14:41:45.001Z</time>
      </trkpt>
      <trkpt lat="45.98534" lon="4.7533">
        <ele>187.018</ele>
        <time>2019-10-04T14:42:15.001Z</time>
      </trkpt>
      <trkpt lat="45.98395" lon="4.75303">
        <ele>176.613</ele>
        <time>2019-10-04T14:42:45.001Z</time>
      </trkpt>
      <trkpt lat="45.98221" lon="4.75319">
        <ele>174.841</ele>
        <time>2019-10-04T14:43:15.001Z</time>
      </trkpt>
      <trkpt lat="45.98047" lon="4.75397">
        <ele>173.274</ele>
        <time>2019-10-04T14:43:45.001Z</time>
      </trkpt>
      <trkpt lat="45.97884" lon="4.7549">
        <ele>169.481</ele>
        <time>2019-10-04T14:44:15.001Z</time>
      </trkpt>
      <trkpt lat="45.97723" lon="4.75587">
        <ele>168.979</ele>
        <time>2019-10-04T14:44:45.001Z</time>
      </trkpt>
      <trkpt lat="45.97564" lon="4.7566">
        <ele>170.062</ele>
        <time>2019-10-04T14:45:15.001Z</time>
      </trkpt>
      <trkpt lat="45.97404" lon="4.75677">
        <ele>170.053</ele>
        <time>2019-10-04T14:45:45.001Z</time>
      </trkpt>
      <trkpt lat="45.97234" lon="4.75658">
        <ele>169.682</ele>
        <time>2019-10-04T14:46:15.001Z</time>
      </trkpt>
      <trkpt lat="45.97072" lon="4.75582">
        <ele>168.47</ele>
        <time>2019-10-04T14:46:45.001Z</time>
      </trkpt>
      <trkpt lat="45.96921" lon="4.75526">
        <ele>169.359</ele>
        <time>2019-10-04T14:47:15.001Z</time>
      </trkpt>
      <trkpt lat="45.96757" lon="4.7546">
        <ele>168.697</ele>
        <time>2019-10-04T14:47:45.001Z</time>
      </trkpt>
      <trkpt lat="45.966" lon="4.75379">
        <ele>175.599</ele>
        <time>2019-10-04T14:48:18.001Z</time>
      </trkpt>
      <trkpt lat="45.96477" lon="4.75296">
        <ele>183.999</ele>
        <time>2019-10-04T14:48:48.001Z</time>
      </trkpt>
      <trkpt lat="45.9633" lon="4.75224">
        <ele>193.058</ele>
        <time>2019-10-04T14:49:18.001Z</time>
      </trkpt>
      <trkpt lat="45.96208" lon="4.75167">
        <ele>195.177</ele>
        <time>2019-10-04T14:49:48.001Z</time>
      </trkpt>
      <trkpt lat="45.961" lon="4.75067">
        <ele>196.972</ele>
        <time>2019-10-04T14:50:18.001Z</time>
      </trkpt>
      <trkpt lat="45.95989" lon="4.75067">
        <ele>198.4</ele>
        <time>2019-10-04T14:50:48.001Z</time>
      </trkpt>
      <trkpt lat="45.95879" lon="4.75118">
        <ele>196.237</ele>
        <time>2019-10-04T14:51:18.001Z</time>
      </trkpt>
      <trkpt lat="45.95822" lon="4.75187">
        <ele>193.826</ele>
        <time>2019-10-04T14:54:33.001Z</time>
      </trkpt>
      <trkpt lat="45.9573" lon="4.75304">
        <ele>194.759</ele>
        <time>2019-10-04T14:55:03.001Z</time>
      </trkpt>
      <trkpt lat="45.95567" lon="4.7544">
        <ele>192.415</ele>
        <time>2019-10-04T14:55:33.001Z</time>
      </trkpt>
      <trkpt lat="45.95327" lon="4.75611">
        <ele>175.603</ele>
        <time>2019-10-04T14:56:03.001Z</time>
      </trkpt>
      <trkpt lat="45.95171" lon="4.75808">
        <ele>177.452</ele>
        <time>2019-10-04T14:56:33.001Z</time>
      </trkpt>
      <trkpt lat="45.95042" lon="4.75842">
        <ele>187.356</ele>
        <time>2019-10-04T14:57:03.001Z</time>
      </trkpt>
      <trkpt lat="45.94944" lon="4.75829">
        <ele>192.296</ele>
        <time>2019-10-04T14:57:33.001Z</time>
      </trkpt>
      <trkpt lat="45.94855" lon="4.75809">
        <ele>197.378</ele>
        <time>2019-10-04T14:58:03.001Z</time>
      </trkpt>
      <trkpt lat="45.94726" lon="4.75865">
        <ele>194.646</ele>
        <time>2019-10-04T14:58:33.001Z</time>
      </trkpt>
      <trkpt lat="45.94556" lon="4.75987">
        <ele>195.181</ele>
        <time>2019-10-04T14:59:03.001Z</time>
      </trkpt>
      <trkpt lat="45.94388" lon="4.76135">
        <ele>188.583</ele>
        <time>2019-10-04T14:59:33.001Z</time>
      </trkpt>
      <trkpt lat="45.94221" lon="4.76291">
        <ele>184.564</ele>
        <time>2019-10-04T15:00:03.001Z</time>
      </trkpt>
      <trkpt lat="45.94162" lon="4.76567">
        <ele>184.682</ele>
        <time>2019-10-04T15:00:33.001Z</time>
      </trkpt>
      <trkpt lat="45.94092" lon="4.76899">
        <ele>187.663</ele>
        <time>2019-10-04T15:01:03.001Z</time>
      </trkpt>
      <trkpt lat="45.94029" lon="4.77157">
        <ele>180.736</ele>
        <time>2019-10-04T15:01:33.001Z</time>
      </trkpt>
      <trkpt lat="45.94012" lon="4.77277">
        <ele>178.592</ele>
        <time>2019-10-04T15:02:24.001Z</time>
      </trkpt>
      <trkpt lat="45.94017" lon="4.77233">
        <ele>180.53</ele>
        <time>2019-10-04T15:03:09.001Z</time>
      </trkpt>
      <trkpt lat="45.94013" lon="4.77252">
        <ele>178.758</ele>
        <time>2019-10-04T15:04:15.001Z</time>
      </trkpt>
      <trkpt lat="45.93968" lon="4.77248">
        <ele>182.904</ele>
        <time>2019-10-04T15:05:15.001Z</time>
      </trkpt>
      <trkpt lat="45.93931" lon="4.7724">
        <ele>182.628</ele>
        <time>2019-10-04T15:06:03.001Z</time>
      </trkpt>
      <trkpt lat="45.93862" lon="4.7722">
        <ele>178.317</ele>
        <time>2019-10-04T15:09:48.001Z</time>
      </trkpt>
      <trkpt lat="45.93775" lon="4.77269">
        <ele>174.682</ele>
        <time>2019-10-04T15:10:18.001Z</time>
      </trkpt>
      <trkpt lat="45.93676" lon="4.77435">
        <ele>172.526</ele>
        <time>2019-10-04T15:10:48.001Z</time>
      </trkpt>
      <trkpt lat="45.93549" lon="4.77446">
        <ele>171.483</ele>
        <time>2019-10-04T15:11:18.001Z</time>
      </trkpt>
      <trkpt lat="45.93371" lon="4.77497">
        <ele>169.564</ele>
        <time>2019-10-04T15:11:51.001Z</time>
      </trkpt>
      <trkpt lat="45.93208" lon="4.77514">
        <ele>168.476</ele>
        <time>2019-10-04T15:12:21.001Z</time>
      </trkpt>
      <trkpt lat="45.93067" lon="4.77525">
        <ele>167.294</ele>
        <time>2019-10-04T15:12:51.001Z</time>
      </trkpt>
      <trkpt lat="45.92934" lon="4.77571">
        <ele>173.565</ele>
        <time>2019-10-04T15:13:21.001Z</time>
      </trkpt>
      <trkpt lat="45.92793" lon="4.77601">
        <ele>180.566</ele>
        <time>2019-10-04T15:13:51.001Z</time>
      </trkpt>
      <trkpt lat="45.92621" lon="4.77614">
        <ele>170.99</ele>
        <time>2019-10-04T15:14:21.001Z</time>
      </trkpt>
      <trkpt lat="45.92451" lon="4.77586">
        <ele>167.273</ele>
        <time>2019-10-04T15:14:51.001Z</time>
      </trkpt>
      <trkpt lat="45.92286" lon="4.77547">
        <ele>167.542</ele>
        <time>2019-10-04T15:15:21.001Z</time>
      </trkpt>
      <trkpt lat="45.92113" lon="4.7757">
        <ele>167.714</ele>
        <time>2019-10-04T15:15:51.001Z</time>
      </trkpt>
      <trkpt lat="45.91984" lon="4.77583">
        <ele>169.749</ele>
        <time>2019-10-04T15:16:21.001Z</time>
      </trkpt>
      <trkpt lat="45.919" lon="4.77552">
        <ele>176.883</ele>
        <time>2019-10-04T15:16:51.001Z</time>
      </trkpt>
      <trkpt lat="45.91751" lon="4.77481">
        <ele>173.202</ele>
        <time>2019-10-04T15:17:21.001Z</time>
      </trkpt>
      <trkpt lat="45.9167" lon="4.776">
        <ele>171.478</ele>
        <time>2019-10-04T15:17:51.001Z</time>
      </trkpt>
      <trkpt lat="45.91612" lon="4.77832">
        <ele>171.173</ele>
        <time>2019-10-04T15:18:22.001Z</time>
      </trkpt>
      <trkpt lat="45.91523" lon="4.78019">
        <ele>167.021</ele>
        <time>2019-10-04T15:18:52.001Z</time>
      </trkpt>
      <trkpt lat="45.9144" lon="4.78201">
        <ele>168.341</ele>
        <time>2019-10-04T15:19:22.001Z</time>
      </trkpt>
      <trkpt lat="45.91361" lon="4.78374">
        <ele>172.35</ele>
        <time>2019-10-04T15:19:52.001Z</time>
      </trkpt>
      <trkpt lat="45.91285" lon="4.78533">
        <ele>175.028</ele>
        <time>2019-10-04T15:20:22.001Z</time>
      </trkpt>
      <trkpt lat="45.912" lon="4.7872">
        <ele>176.777</ele>
        <time>2019-10-04T15:20:52.001Z</time>
      </trkpt>
      <trkpt lat="45.91096" lon="4.78912">
        <ele>175.528</ele>
        <time>2019-10-04T15:21:22.001Z</time>
      </trkpt>
      <trkpt lat="45.91002" lon="4.79081">
        <ele>176.392</ele>
        <time>2019-10-04T15:21:52.001Z</time>
      </trkpt>
      <trkpt lat="45.90908" lon="4.79259">
        <ele>178.09</ele>
        <time>2019-10-04T15:22:22.001Z</time>
      </trkpt>
      <trkpt lat="45.90778" lon="4.79421">
        <ele>176.932</ele>
        <time>2019-10-04T15:22:52.001Z</time>
      </trkpt>
      <trkpt lat="45.90614" lon="4.79519">
        <ele>171.914</ele>
        <time>2019-10-04T15:23:22.001Z</time>
      </trkpt>
      <trkpt lat="45.90459" lon="4.79644">
        <ele>170.151</ele>
        <time>2019-10-04T15:23:52.001Z</time>
      </trkpt>
      <trkpt lat="45.90328" lon="4.79812">
        <ele>170.63</ele>
        <time>2019-10-04T15:24:22.001Z</time>
      </trkpt>
      <trkpt lat="45.90175" lon="4.79939">
        <ele>171.006</ele>
        <time>2019-10-04T15:24:52.001Z</time>
      </trkpt>
      <trkpt lat="45.89996" lon="4.80016">
        <ele>171.435</ele>
        <time>2019-10-04T15:25:22.001Z</time>
      </trkpt>
      <trkpt lat="45.8982" lon="4.80091">
        <ele>166.187</ele>
        <time>2019-10-04T15:25:52.001Z</time>
      </trkpt>
      <trkpt lat="45.89662" lon="4.80163">
        <ele>170.354</ele>
        <time>2019-10-04T15:26:22.001Z</time>
      </trkpt>
      <trkpt lat="45.89478" lon="4.80242">
        <ele>173.17</ele>
        <time>2019-10-04T15:26:55.001Z</time>
      </trkpt>
      <trkpt lat="45.89326" lon="4.8034">
        <ele>175.648</ele>
        <time>2019-10-04T15:27:25.001Z</time>
      </trkpt>
      <trkpt lat="45.89186" lon="4.80468">
        <ele>177.897</ele>
        <time>2019-10-04T15:27:55.001Z</time>
      </trkpt>
      <trkpt lat="45.89025" lon="4.80544">
        <ele>169.933</ele>
        <time>2019-10-04T15:28:25.001Z</time>
      </trkpt>
      <trkpt lat="45.88874" lon="4.80621">
        <ele>173.347</ele>
        <time>2019-10-04T15:28:55.001Z</time>
      </trkpt>
      <trkpt lat="45.88728" lon="4.80768">
        <ele>175.057</ele>
        <time>2019-10-04T15:29:25.001Z</time>
      </trkpt>
      <trkpt lat="45.88643" lon="4.80855">
        <ele>172.434</ele>
        <time>2019-10-04T15:29:58.001Z</time>
      </trkpt>
      <trkpt lat="45.88694" lon="4.80789">
        <ele>173.843</ele>
        <time>2019-10-04T15:30:37.001Z</time>
      </trkpt>
      <trkpt lat="45.88696" lon="4.80785">
        <ele>172.131</ele>
        <time>2019-10-04T15:41:20.001Z</time>
      </trkpt>
      <trkpt lat="45.88606" lon="4.80897">
        <ele>170.632</ele>
        <time>2019-10-04T15:41:50.001Z</time>
      </trkpt>
      <trkpt lat="45.88491" lon="4.8104">
        <ele>170.485</ele>
        <time>2019-10-04T15:42:20.001Z</time>
      </trkpt>
      <trkpt lat="45.8839" lon="4.81197">
        <ele>170.915</ele>
        <time>2019-10-04T15:42:50.001Z</time>
      </trkpt>
      <trkpt lat="45.88299" lon="4.81377">
        <ele>177.441</ele>
        <time>2019-10-04T15:43:20.001Z</time>
      </trkpt>
      <trkpt lat="45.88213" lon="4.81571">
        <ele>181.334</ele>
        <time>2019-10-04T15:43:50.001Z</time>
      </trkpt>
      <trkpt lat="45.88131" lon="4.81764">
        <ele>177.964</ele>
        <time>2019-10-04T15:44:20.001Z</time>
      </trkpt>
      <trkpt lat="45.8805" lon="4.81983">
        <ele>176.708</ele>
        <time>2019-10-04T15:44:50.001Z</time>
      </trkpt>
      <trkpt lat="45.87961" lon="4.82184">
        <ele>171.408</ele>
        <time>2019-10-04T15:45:20.001Z</time>
      </trkpt>
      <trkpt lat="45.87927" lon="4.82444">
        <ele>165.272</ele>
        <time>2019-10-04T15:45:50.001Z</time>
      </trkpt>
      <trkpt lat="45.87876" lon="4.8269">
        <ele>167.877</ele>
        <time>2019-10-04T15:46:20.001Z</time>
      </trkpt>
      <trkpt lat="45.87886" lon="4.82941">
        <ele>163.025</ele>
        <time>2019-10-04T15:46:50.001Z</time>
      </trkpt>
      <trkpt lat="45.87858" lon="4.83181">
        <ele>163.4</ele>
        <time>2019-10-04T15:47:20.001Z</time>
      </trkpt>
      <trkpt lat="45.87818" lon="4.83336">
        <ele>169.665</ele>
        <time>2019-10-04T15:47:50.001Z</time>
      </trkpt>
      <trkpt lat="45.87756" lon="4.83469">
        <ele>171.817</ele>
        <time>2019-10-04T15:48:20.001Z</time>
      </trkpt>
      <trkpt lat="45.87674" lon="4.8356">
        <ele>170.63</ele>
        <time>2019-10-04T15:48:50.001Z</time>
      </trkpt>
      <trkpt lat="45.87686" lon="4.837">
        <ele>173.196</ele>
        <time>2019-10-04T15:49:23.001Z</time>
      </trkpt>
      <trkpt lat="45.8766" lon="4.83836">
        <ele>167.148</ele>
        <time>2019-10-04T15:49:56.001Z</time>
      </trkpt>
      <trkpt lat="45.87551" lon="4.83867">
        <ele>170.971</ele>
        <time>2019-10-04T15:50:26.001Z</time>
      </trkpt>
      <trkpt lat="45.87392" lon="4.83909">
        <ele>171.94</ele>
        <time>2019-10-04T15:50:56.001Z</time>
      </trkpt>
      <trkpt lat="45.87218" lon="4.83953">
        <ele>176.383</ele>
        <time>2019-10-04T15:51:26.001Z</time>
      </trkpt>
      <trkpt lat="45.87052" lon="4.8398">
        <ele>178.633</ele>
        <time>2019-10-04T15:51:56.001Z</time>
      </trkpt>
      <trkpt lat="45.86872" lon="4.83972">
        <ele>173.139</ele>
        <time>2019-10-04T15:52:26.001Z</time>
      </trkpt>
      <trkpt lat="45.86694" lon="4.83954">
        <ele>167.957</ele>
        <time>2019-10-04T15:52:59.001Z</time>
      </trkpt>
      <trkpt lat="45.86537" lon="4.83973">
        <ele>169.692</ele>
        <time>2019-10-04T15:53:29.001Z</time>
      </trkpt>
      <trkpt lat="45.86374" lon="4.84024">
        <ele>172.041</ele>
        <time>2019-10-04T15:53:59.001Z</time>
      </trkpt>
      <trkpt lat="45.86214" lon="4.84064">
        <ele>168.503</ele>
        <time>2019-10-04T15:54:29.001Z</time>
      </trkpt>
      <trkpt lat="45.86046" lon="4.84105">
        <ele>168.945</ele>
        <time>2019-10-04T15:54:59.001Z</time>
      </trkpt>
      <trkpt lat="45.85873" lon="4.84123">
        <ele>168.643</ele>
        <time>2019-10-04T15:55:29.001Z</time>
      </trkpt>
      <trkpt lat="45.85709" lon="4.84046">
        <ele>167.16</ele>
        <time>2019-10-04T15:55:59.001Z</time>
      </trkpt>
      <trkpt lat="45.85547" lon="4.83966">
        <ele>166.67</ele>
        <time>2019-10-04T15:56:29.001Z</time>
      </trkpt>
      <trkpt lat="45.85382" lon="4.83885">
        <ele>166.341</ele>
        <time>2019-10-04T15:56:59.001Z</time>
      </trkpt>
      <trkpt lat="45.85228" lon="4.83824">
        <ele>168.881</ele>
        <time>2019-10-04T15:57:29.001Z</time>
      </trkpt>
      <trkpt lat="45.85062" lon="4.83778">
        <ele>171.108</ele>
        <time>2019-10-04T15:57:59.001Z</time>
      </trkpt>
      <trkpt lat="45.84912" lon="4.83714">
        <ele>169.527</ele>
        <time>2019-10-04T15:58:29.001Z</time>
      </trkpt>
      <trkpt lat="45.84749" lon="4.83631">
        <ele>168.774</ele>
        <time>2019-10-04T15:58:59.001Z</time>
      </trkpt>
      <trkpt lat="45.84592" lon="4.8355">
        <ele>168.371</ele>
        <time>2019-10-04T15:59:29.001Z</time>
      </trkpt>
      <trkpt lat="45.84483" lon="4.83502">
        <ele>164.858</ele>
        <time>2019-10-04T15:59:59.001Z</time>
      </trkpt>
      <trkpt lat="45.84348" lon="4.83449">
        <ele>166.198</ele>
        <time>2019-10-04T16:00:29.001Z</time>
      </trkpt>
      <trkpt lat="45.84199" lon="4.83389">
        <ele>167.309</ele>
        <time>2019-10-04T16:00:59.001Z</time>
      </trkpt>
      <trkpt lat="45.84042" lon="4.83376">
        <ele>169.723</ele>
        <time>2019-10-04T16:01:29.001Z</time>
      </trkpt>
      <trkpt lat="45.8397" lon="4.83395">
        <ele>173.77</ele>
        <time>2019-10-04T16:02:35.001Z</time>
      </trkpt>
      <trkpt lat="45.83863" lon="4.83455">
        <ele>174.156</ele>
        <time>2019-10-04T16:03:05.001Z</time>
      </trkpt>
      <trkpt lat="45.83739" lon="4.83596">
        <ele>177.102</ele>
        <time>2019-10-04T16:03:35.001Z</time>
      </trkpt>
      <trkpt lat="45.83619" lon="4.83779">
        <ele>177.31</ele>
        <time>2019-10-04T16:04:05.001Z</time>
      </trkpt>
      <trkpt lat="45.83532" lon="4.83929">
        <ele>176.355</ele>
        <time>2019-10-04T16:04:35.001Z</time>
      </trkpt>
      <trkpt lat="45.83452" lon="4.84128">
        <ele>170.911</ele>
        <time>2019-10-04T16:05:05.001Z</time>
      </trkpt>
      <trkpt lat="45.83384" lon="4.84348">
        <ele>170.545</ele>
        <time>2019-10-04T16:05:35.001Z</time>
      </trkpt>
      <trkpt lat="45.83326" lon="4.84557">
        <ele>168.547</ele>
        <time>2019-10-04T16:06:05.001Z</time>
      </trkpt>
      <trkpt lat="45.83268" lon="4.84764">
        <ele>165.701</ele>
        <time>2019-10-04T16:06:35.001Z</time>
      </trkpt>
      <trkpt lat="45.83186" lon="4.84962">
        <ele>165.09</ele>
        <time>2019-10-04T16:07:05.001Z</time>
      </trkpt>
      <trkpt lat="45.83138" lon="4.85046">
        <ele>164.558</ele>
        <time>2019-10-04T16:09:29.001Z</time>
      </trkpt>
      <trkpt lat="45.83169" lon="4.85092">
        <ele>161.865</ele>
        <time>2019-10-04T16:10:26.001Z</time>
      </trkpt>
      <trkpt lat="45.83187" lon="4.85262">
        <ele>164.255</ele>
        <time>2019-10-04T16:10:59.001Z</time>
      </trkpt>
      <trkpt lat="45.83163" lon="4.85393">
        <ele>173.767</ele>
        <time>2019-10-04T16:11:29.001Z</time>
      </trkpt>
      <trkpt lat="45.8313" lon="4.85482">
        <ele>184.375</ele>
        <time>2019-10-04T16:11:59.001Z</time>
      </trkpt>
      <trkpt lat="45.83089" lon="4.85555">
        <ele>195.836</ele>
        <time>2019-10-04T16:12:29.001Z</time>
      </trkpt>
      <trkpt lat="45.83048" lon="4.85629">
        <ele>201.022</ele>
        <time>2019-10-04T16:12:59.001Z</time>
      </trkpt>
      <trkpt lat="45.83006" lon="4.857">
        <ele>206.055</ele>
        <time>2019-10-04T16:13:32.001Z</time>
      </trkpt>
      <trkpt lat="45.82963" lon="4.85766">
        <ele>210.311</ele>
        <time>2019-10-04T16:14:02Z</time>
      </trkpt>
      <trkpt lat="45.82916" lon="4.85815">
        <ele>210.307</ele>
        <time>2019-10-04T16:14:32.001Z</time>
      </trkpt>
      <trkpt lat="45.82869" lon="4.85862">
        <ele>211.639</ele>
        <time>2019-10-04T16:15:02Z</time>
      </trkpt>
      <trkpt lat="45.82815" lon="4.85912">
        <ele>214.241</ele>
        <time>2019-10-04T16:15:32.001Z</time>
      </trkpt>
      <trkpt lat="45.82763" lon="4.85951">
        <ele>220.481</ele>
        <time>2019-10-04T16:16:02Z</time>
      </trkpt>
      <trkpt lat="45.82708" lon="4.85981">
        <ele>228.257</ele>
        <time>2019-10-04T16:16:32.001Z</time>
      </trkpt>
      <trkpt lat="45.82653" lon="4.8601">
        <ele>233.129</ele>
        <time>2019-10-04T16:17:02Z</time>
      </trkpt>
      <trkpt lat="45.82595" lon="4.86044">
        <ele>237.373</ele>
        <time>2019-10-04T16:17:32.001Z</time>
      </trkpt>
      <trkpt lat="45.82531" lon="4.8607">
        <ele>243.244</ele>
        <time>2019-10-04T16:18:02Z</time>
      </trkpt>
      <trkpt lat="45.8247" lon="4.86087">
        <ele>250.458</ele>
        <time>2019-10-04T16:18:32.001Z</time>
      </trkpt>
      <trkpt lat="45.82406" lon="4.86089">
        <ele>254.48</ele>
        <time>2019-10-04T16:19:05.001Z</time>
      </trkpt>
      <trkpt lat="45.82343" lon="4.86132">
        <ele>251.759</ele>
        <time>2019-10-04T16:19:35.001Z</time>
      </trkpt>
      <trkpt lat="45.82285" lon="4.86179">
        <ele>252.569</ele>
        <time>2019-10-04T16:20:05.001Z</time>
      </trkpt>
      <trkpt lat="45.82223" lon="4.86218">
        <ele>257.088</ele>
        <time>2019-10-04T16:20:35.001Z</time>
      </trkpt>
      <trkpt lat="45.82144" lon="4.86242">
        <ele>264.885</ele>
        <time>2019-10-04T16:21:05.001Z</time>
      </trkpt>
      <trkpt lat="45.82055" lon="4.86263">
        <ele>267.704</ele>
        <time>2019-10-04T16:21:35.001Z</time>
      </trkpt>
      <trkpt lat="45.8195" lon="4.8628">
        <ele>270.651</ele>
        <time>2019-10-04T16:22:05.001Z</time>
      </trkpt>
      <trkpt lat="45.81814" lon="4.86295">
        <ele>270.135</ele>
        <time>2019-10-04T16:22:35.001Z</time>
      </trkpt>
      <trkpt lat="45.81675" lon="4.863">
        <ele>270.293</ele>
        <time>2019-10-04T16:23:05.001Z</time>
      </trkpt>
      <trkpt lat="45.81531" lon="4.86272">
        <ele>265.667</ele>
        <time>2019-10-04T16:23:35.001Z</time>
      </trkpt>
      <trkpt lat="45.81446" lon="4.86192">
        <ele>263.898</ele>
        <time>2019-10-04T16:24:11.001Z</time>
      </trkpt>
      <trkpt lat="45.81339" lon="4.86077">
        <ele>265.339</ele>
        <time>2019-10-04T16:24:41.001Z</time>
      </trkpt>
      <trkpt lat="45.81246" lon="4.85966">
        <ele>265.023</ele>
        <time>2019-10-04T16:25:11.001Z</time>
      </trkpt>
      <trkpt lat="45.81148" lon="4.8589">
        <ele>262.87</ele>
        <time>2019-10-04T16:25:44.001Z</time>
      </trkpt>
      <trkpt lat="45.81" lon="4.8575">
        <ele>264.223</ele>
        <time>2019-10-04T16:26:14.001Z</time>
      </trkpt>
      <trkpt lat="45.8092" lon="4.8571">
        <ele>268.322</ele>
        <time>2019-10-04T16:27:02Z</time>
      </trkpt>
      <trkpt lat="45.80856" lon="4.85665">
        <ele>267.536</ele>
        <time>2019-10-04T16:27:35.001Z</time>
      </trkpt>
      <trkpt lat="45.8079" lon="4.8561">
        <ele>261.174</ele>
        <time>2019-10-04T16:28:05.001Z</time>
      </trkpt>
      <trkpt lat="45.80705" lon="4.85542">
        <ele>258.232</ele>
        <time>2019-10-04T16:28:35.001Z</time>
      </trkpt>
      <trkpt lat="45.8058" lon="4.85403">
        <ele>259.821</ele>
        <time>2019-10-04T16:29:05.001Z</time>
      </trkpt>
      <trkpt lat="45.8044" lon="4.85269">
        <ele>256.147</ele>
        <time>2019-10-04T16:29:35.001Z</time>
      </trkpt>
      <trkpt lat="45.80272" lon="4.85125">
        <ele>254.311</ele>
        <time>2019-10-04T16:30:05.001Z</time>
      </trkpt>
      <trkpt lat="45.80139" lon="4.85132">
        <ele>252.809</ele>
        <time>2019-10-04T16:30:35.001Z</time>
      </trkpt>
      <trkpt lat="45.80084" lon="4.85132">
        <ele>250.886</ele>
        <time>2019-10-04T16:31:14.001Z</time>
      </trkpt>
      <trkpt lat="45.79975" lon="4.8513">
        <ele>257.908</ele>
        <time>2019-10-04T16:31:44.001Z</time>
      </trkpt>
      <trkpt lat="45.79828" lon="4.85047">
        <ele>246.265</ele>
        <time>2019-10-04T16:32:14.001Z</time>
      </trkpt>
      <trkpt lat="45.79756" lon="4.8507">
        <ele>247.909</ele>
        <time>2019-10-04T16:32:44.001Z</time>
      </trkpt>
      <trkpt lat="45.79689" lon="4.84974">
        <ele>250.271</ele>
        <time>2019-10-04T16:33:14.001Z</time>
      </trkpt>
      <trkpt lat="45.79644" lon="4.84905">
        <ele>252.05</ele>
        <time>2019-10-04T16:33:44.001Z</time>
      </trkpt>
      <trkpt lat="45.79608" lon="4.84953">
        <ele>260.551</ele>
        <time>2019-10-04T16:34:14.001Z</time>
      </trkpt>
    </trkseg>
  </trk>
</gpx>